sensor_id;sensor_type;location;lat;lon;timestamp;pressure;altitude;pressure_sealevel;temperature;humidity
40946;BME280;55635;50.264;11.918;2024-03-23T00:55:06;94852.47;;;11.76;72.52
40946;BME280;55635;50.264;11.918;2024-03-23T00:57:48;94848.19;;;11.75;72.73
40946;BME280;55635;50.264;11.918;2024-03-23T01:00:29;94843.56;;;11.44;73.29
40946;BME280;55635;50.264;11.918;2024-03-23T01:03:11;94852.34;;;11.44;73.92
40946;BME280;55635;50.264;11.918;2024-03-23T01:05:51;94845.22;;;11.38;74.06
40946;BME280;55635;50.264;11.918;2024-03-23T01:08:35;94839.72;;;11.40;74.28
40946;BME280;55635;50.264;11.918;2024-03-23T01:11:16;94830.75;;;11.34;74.54
40946;BME280;55635;50.264;11.918;2024-03-23T01:13:57;94834.97;;;11.55;74.02
40946;BME280;55635;50.264;11.918;2024-03-23T01:16:38;94834.34;;;11.53;74.04
40946;BME280;55635;50.264;11.918;2024-03-23T01:19:19;94824.13;;;11.57;73.72
40946;BME280;55635;50.264;11.918;2024-03-23T01:22:00;94814.31;;;11.64;73.58
40946;BME280;55635;50.264;11.918;2024-03-23T01:24:41;94813.94;;;11.47;73.99
40946;BME280;55635;50.264;11.918;2024-03-23T01:27:23;94823.00;;;11.26;74.67
40946;BME280;55635;50.264;11.918;2024-03-23T01:30:04;94811.66;;;11.13;74.50
40946;BME280;55635;50.264;11.918;2024-03-23T01:32:45;94815.31;;;11.12;74.79
40946;BME280;55635;50.264;11.918;2024-03-23T01:35:27;94815.97;;;11.01;75.26
40946;BME280;55635;50.264;11.918;2024-03-23T01:38:09;94808.41;;;10.91;76.33
40946;BME280;55635;50.264;11.918;2024-03-23T01:40:55;94809.03;;;10.80;76.37
40946;BME280;55635;50.264;11.918;2024-03-23T01:43:36;94796.59;;;10.74;77.07
40946;BME280;55635;50.264;11.918;2024-03-23T01:46:17;94791.69;;;10.84;76.64
40946;BME280;55635;50.264;11.918;2024-03-23T01:48:59;94812.13;;;10.64;78.00
40946;BME280;55635;50.264;11.918;2024-03-23T01:51:41;94819.63;;;10.80;77.92
40946;BME280;55635;50.264;11.918;2024-03-23T01:54:24;94804.56;;;10.74;78.08
40946;BME280;55635;50.264;11.918;2024-03-23T01:57:06;94801.88;;;10.93;77.48
40946;BME280;55635;50.264;11.918;2024-03-23T01:59:48;94794.34;;;10.97;77.52
40946;BME280;55635;50.264;11.918;2024-03-23T02:02:36;94774.19;;;10.70;78.35
40946;BME280;55635;50.264;11.918;2024-03-23T02:05:18;94769.69;;;10.70;78.94
40946;BME280;55635;50.264;11.918;2024-03-23T02:07:59;94754.38;;;10.85;78.44
40946;BME280;55635;50.264;11.918;2024-03-23T02:10:40;94764.75;;;11.00;77.81
40946;BME280;55635;50.264;11.918;2024-03-23T02:13:21;94767.16;;;11.08;77.77
40946;BME280;55635;50.264;11.918;2024-03-23T02:16:02;94749.19;;;11.10;77.57
40946;BME280;55635;50.264;11.918;2024-03-23T02:18:44;94750.56;;;11.26;77.46
40946;BME280;55635;50.264;11.918;2024-03-23T02:21:25;94740.13;;;11.31;77.27
40946;BME280;55635;50.264;11.918;2024-03-23T02:24:08;94742.41;;;11.27;77.26
40946;BME280;55635;50.264;11.918;2024-03-23T02:26:49;94740.50;;;11.34;76.83
40946;BME280;55635;50.264;11.918;2024-03-23T02:29:30;94731.53;;;11.35;76.58
40946;BME280;55635;50.264;11.918;2024-03-23T02:32:11;94721.22;;;11.14;77.28
40946;BME280;55635;50.264;11.918;2024-03-23T02:34:52;94727.91;;;11.23;77.28
40946;BME280;55635;50.264;11.918;2024-03-23T02:37:33;94727.94;;;11.17;77.37
40946;BME280;55635;50.264;11.918;2024-03-23T02:40:15;94718.31;;;11.22;77.34
40946;BME280;55635;50.264;11.918;2024-03-23T02:42:57;94700.38;;;11.24;76.80
40946;BME280;55635;50.264;11.918;2024-03-23T02:45:38;94702.19;;;11.24;77.00
40946;BME280;55635;50.264;11.918;2024-03-23T02:48:18;94708.47;;;11.36;76.59
40946;BME280;55635;50.264;11.918;2024-03-23T02:50:59;94701.94;;;11.32;76.54
40946;BME280;55635;50.264;11.918;2024-03-23T02:53:41;94685.75;;;11.02;77.34
40946;BME280;55635;50.264;11.918;2024-03-23T02:56:22;94678.69;;;10.83;78.44
40946;BME280;55635;50.264;11.918;2024-03-23T02:59:03;94690.75;;;10.85;78.05
40946;BME280;55635;50.264;11.918;2024-03-23T03:01:44;94687.72;;;10.75;78.56
40946;BME280;55635;50.264;11.918;2024-03-23T03:04:25;94666.91;;;10.72;79.02
40946;BME280;55635;50.264;11.918;2024-03-23T03:07:06;94681.28;;;10.38;80.57
40946;BME280;55635;50.264;11.918;2024-03-23T03:09:47;94675.22;;;10.82;78.41
40946;BME280;55635;50.264;11.918;2024-03-23T03:12:28;94658.72;;;10.80;78.06
40946;BME280;55635;50.264;11.918;2024-03-23T03:15:09;94669.56;;;10.79;78.62
40946;BME280;55635;50.264;11.918;2024-03-23T03:17:50;94661.19;;;10.75;78.71
40946;BME280;55635;50.264;11.918;2024-03-23T03:20:31;94657.84;;;10.42;80.01
40946;BME280;55635;50.264;11.918;2024-03-23T03:23:12;94660.91;;;10.26;80.74
40946;BME280;55635;50.264;11.918;2024-03-23T03:25:53;94649.66;;;10.44;80.49
40946;BME280;55635;50.264;11.918;2024-03-23T03:28:34;94624.53;;;10.66;78.93
40946;BME280;55635;50.264;11.918;2024-03-23T03:31:15;94624.81;;;10.89;77.95
40946;BME280;55635;50.264;11.918;2024-03-23T03:33:57;94632.00;;;11.20;75.07
40946;BME280;55635;50.264;11.918;2024-03-23T03:36:38;94624.44;;;11.23;75.08
40946;BME280;55635;50.264;11.918;2024-03-23T03:39:19;94631.31;;;11.00;76.12
40946;BME280;55635;50.264;11.918;2024-03-23T03:42:00;94612.84;;;11.18;75.40
40946;BME280;55635;50.264;11.918;2024-03-23T03:44:42;94616.31;;;11.18;75.20
40946;BME280;55635;50.264;11.918;2024-03-23T03:47:23;94603.97;;;11.30;75.15
40946;BME280;55635;50.264;11.918;2024-03-23T03:50:05;94584.59;;;11.30;74.86
40946;BME280;55635;50.264;11.918;2024-03-23T03:52:46;94581.38;;;11.21;74.72
40946;BME280;55635;50.264;11.918;2024-03-23T03:55:27;94566.31;;;11.15;74.38
40946;BME280;55635;50.264;11.918;2024-03-23T03:58:08;94565.38;;;11.03;74.58
40946;BME280;55635;50.264;11.918;2024-03-23T04:00:49;94557.66;;;10.95;74.91
40946;BME280;55635;50.264;11.918;2024-03-23T04:03:30;94554.38;;;11.00;74.50
40946;BME280;55635;50.264;11.918;2024-03-23T04:06:11;94564.97;;;11.06;74.85
40946;BME280;55635;50.264;11.918;2024-03-23T04:08:52;94557.50;;;10.90;76.15
40946;BME280;55635;50.264;11.918;2024-03-23T04:11:33;94549.53;;;10.90;76.29
40946;BME280;55635;50.264;11.918;2024-03-23T04:14:14;94551.00;;;10.86;76.77
40946;BME280;55635;50.264;11.918;2024-03-23T04:16:55;94526.78;;;11.07;75.73
40946;BME280;55635;50.264;11.918;2024-03-23T04:19:36;94528.66;;;11.07;75.92
40946;BME280;55635;50.264;11.918;2024-03-23T04:22:17;94504.34;;;11.10;74.93
40946;BME280;55635;50.264;11.918;2024-03-23T04:24:58;94505.97;;;11.04;75.24
40946;BME280;55635;50.264;11.918;2024-03-23T04:27:40;94506.59;;;11.06;75.29
40946;BME280;55635;50.264;11.918;2024-03-23T04:30:23;94505.06;;;11.17;75.16
40946;BME280;55635;50.264;11.918;2024-03-23T04:33:05;94508.22;;;11.07;75.66
40946;BME280;55635;50.264;11.918;2024-03-23T04:35:49;94508.56;;;10.55;78.88
40946;BME280;55635;50.264;11.918;2024-03-23T04:38:31;94505.34;;;10.77;79.04
40946;BME280;55635;50.264;11.918;2024-03-23T04:41:11;94504.00;;;10.68;79.08
40946;BME280;55635;50.264;11.918;2024-03-23T04:43:53;94509.88;;;10.70;79.22
40946;BME280;55635;50.264;11.918;2024-03-23T04:46:34;94494.19;;;10.69;79.24
40946;BME280;55635;50.264;11.918;2024-03-23T04:49:15;94491.97;;;10.66;79.98
40946;BME280;55635;50.264;11.918;2024-03-23T04:51:56;94477.63;;;10.49;80.63
40946;BME280;55635;50.264;11.918;2024-03-23T04:54:37;94474.66;;;10.63;80.30
40946;BME280;55635;50.264;11.918;2024-03-23T04:57:18;94470.66;;;10.54;80.87
40946;BME280;55635;50.264;11.918;2024-03-23T05:00:01;94470.50;;;10.74;79.70
40946;BME280;55635;50.264;11.918;2024-03-23T05:02:45;94459.75;;;10.69;80.00
40946;BME280;55635;50.264;11.918;2024-03-23T05:05:26;94483.16;;;11.03;80.24
40946;BME280;55635;50.264;11.918;2024-03-23T05:08:07;94501.06;;;11.08;80.83
40946;BME280;55635;50.264;11.918;2024-03-23T05:10:48;94499.06;;;11.03;83.02
40946;BME280;55635;50.264;11.918;2024-03-23T05:13:29;94513.00;;;11.23;82.94
40946;BME280;55635;50.264;11.918;2024-03-23T05:16:10;94501.56;;;11.47;82.09
40946;BME280;55635;50.264;11.918;2024-03-23T05:18:51;94503.66;;;11.64;83.04
40946;BME280;55635;50.264;11.918;2024-03-23T05:21:33;94479.38;;;11.60;83.30
40946;BME280;55635;50.264;11.918;2024-03-23T05:24:14;94463.69;;;11.16;85.41
40946;BME280;55635;50.264;11.918;2024-03-23T05:26:54;94485.72;;;10.54;91.50
40946;BME280;55635;50.264;11.918;2024-03-23T05:29:36;94505.28;;;10.53;94.81
40946;BME280;55635;50.264;11.918;2024-03-23T05:32:17;94475.03;;;10.35;98.69
40946;BME280;55635;50.264;11.918;2024-03-23T05:34:58;94463.16;;;10.45;99.30
40946;BME280;55635;50.264;11.918;2024-03-23T05:37:39;94459.94;;;10.36;100.00
40946;BME280;55635;50.264;11.918;2024-03-23T05:40:20;94454.75;;;10.16;100.00
40946;BME280;55635;50.264;11.918;2024-03-23T05:43:01;94442.25;;;10.61;100.00
40946;BME280;55635;50.264;11.918;2024-03-23T05:45:42;94444.97;;;10.55;100.00
40946;BME280;55635;50.264;11.918;2024-03-23T05:48:24;94436.06;;;10.43;100.00
40946;BME280;55635;50.264;11.918;2024-03-23T05:51:05;94440.59;;;10.67;100.00
40946;BME280;55635;50.264;11.918;2024-03-23T05:53:46;94435.00;;;10.50;100.00
40946;BME280;55635;50.264;11.918;2024-03-23T05:56:27;94437.00;;;10.55;100.00
40946;BME280;55635;50.264;11.918;2024-03-23T05:59:08;94441.31;;;10.49;100.00
40946;BME280;55635;50.264;11.918;2024-03-23T06:01:50;94420.31;;;10.79;100.00
40946;BME280;55635;50.264;11.918;2024-03-23T06:04:31;94407.25;;;10.53;100.00
40946;BME280;55635;50.264;11.918;2024-03-23T06:07:12;94393.63;;;10.74;100.00
40946;BME280;55635;50.264;11.918;2024-03-23T06:09:55;94402.56;;;10.55;100.00
40946;BME280;55635;50.264;11.918;2024-03-23T06:12:36;94384.38;;;10.58;100.00
40946;BME280;55635;50.264;11.918;2024-03-23T06:15:20;94396.63;;;10.53;100.00
40946;BME280;55635;50.264;11.918;2024-03-23T06:18:03;94395.41;;;10.80;100.00
40946;BME280;55635;50.264;11.918;2024-03-23T06:20:45;94384.84;;;10.98;100.00
40946;BME280;55635;50.264;11.918;2024-03-23T06:23:27;94379.78;;;10.97;99.57
40946;BME280;55635;50.264;11.918;2024-03-23T06:26:08;94384.59;;;11.06;99.72
40946;BME280;55635;50.264;11.918;2024-03-23T06:28:49;94358.41;;;10.91;100.00
40946;BME280;55635;50.264;11.918;2024-03-23T06:31:30;94361.94;;;11.46;97.55
40946;BME280;55635;50.264;11.918;2024-03-23T06:34:11;94368.25;;;11.09;98.44
40946;BME280;55635;50.264;11.918;2024-03-23T06:36:52;94371.94;;;11.26;98.55
40946;BME280;55635;50.264;11.918;2024-03-23T06:39:33;94367.81;;;11.30;98.25
40946;BME280;55635;50.264;11.918;2024-03-23T06:42:14;94354.91;;;11.16;98.85
40946;BME280;55635;50.264;11.918;2024-03-23T06:44:55;94337.69;;;11.25;98.09
40946;BME280;55635;50.264;11.918;2024-03-23T06:47:36;94339.78;;;11.16;98.53
40946;BME280;55635;50.264;11.918;2024-03-23T06:50:17;94345.88;;;10.99;97.92
40946;BME280;55635;50.264;11.918;2024-03-23T06:52:58;94347.38;;;10.95;97.70
40946;BME280;55635;50.264;11.918;2024-03-23T06:55:39;94342.03;;;11.37;95.96
40946;BME280;55635;50.264;11.918;2024-03-23T06:58:24;94345.19;;;11.46;95.38
40946;BME280;55635;50.264;11.918;2024-03-23T07:01:06;94332.72;;;12.13;92.31
40946;BME280;55635;50.264;11.918;2024-03-23T07:03:48;94332.75;;;12.66;90.13
40946;BME280;55635;50.264;11.918;2024-03-23T07:06:28;94322.66;;;12.15;90.52
40946;BME280;55635;50.264;11.918;2024-03-23T07:09:10;94333.94;;;11.98;91.15
40946;BME280;55635;50.264;11.918;2024-03-23T07:11:51;94319.94;;;11.91;90.92
40946;BME280;55635;50.264;11.918;2024-03-23T07:14:32;94322.66;;;12.15;90.15
40946;BME280;55635;50.264;11.918;2024-03-23T07:17:12;94312.13;;;12.08;90.70
40946;BME280;55635;50.264;11.918;2024-03-23T07:19:54;94308.44;;;12.09;90.48
40946;BME280;55635;50.264;11.918;2024-03-23T07:22:35;94319.19;;;12.14;91.01
40946;BME280;55635;50.264;11.918;2024-03-23T07:25:16;94304.94;;;11.97;90.64
40946;BME280;55635;50.264;11.918;2024-03-23T07:27:57;94312.13;;;12.08;90.83
40946;BME280;55635;50.264;11.918;2024-03-23T07:30:39;94318.63;;;12.12;88.85
40946;BME280;55635;50.264;11.918;2024-03-23T07:33:20;94319.69;;;11.93;88.44
40946;BME280;55635;50.264;11.918;2024-03-23T07:36:01;94320.16;;;11.90;90.17
40946;BME280;55635;50.264;11.918;2024-03-23T07:38:43;94313.91;;;11.84;90.04
40946;BME280;55635;50.264;11.918;2024-03-23T07:41:27;94318.56;;;12.42;87.90
40946;BME280;55635;50.264;11.918;2024-03-23T07:44:08;94314.50;;;12.16;86.82
40946;BME280;55635;50.264;11.918;2024-03-23T07:46:49;94323.03;;;12.18;86.89
40946;BME280;55635;50.264;11.918;2024-03-23T07:49:30;94316.25;;;12.22;87.74
40946;BME280;55635;50.264;11.918;2024-03-23T07:52:11;94318.91;;;11.92;86.90
40946;BME280;55635;50.264;11.918;2024-03-23T07:54:51;94331.22;;;11.87;87.48
40946;BME280;55635;50.264;11.918;2024-03-23T07:57:33;94329.19;;;11.89;86.65
40946;BME280;55635;50.264;11.918;2024-03-23T08:00:17;94336.03;;;11.78;87.85
40946;BME280;55635;50.264;11.918;2024-03-23T08:02:58;94321.22;;;11.89;87.00
40946;BME280;55635;50.264;11.918;2024-03-23T08:05:39;94347.69;;;11.77;86.81
40946;BME280;55635;50.264;11.918;2024-03-23T08:08:20;94352.47;;;11.87;87.48
40946;BME280;55635;50.264;11.918;2024-03-23T08:11:01;94336.34;;;11.70;88.51
40946;BME280;55635;50.264;11.918;2024-03-23T08:13:44;94348.66;;;11.83;88.19
40946;BME280;55635;50.264;11.918;2024-03-23T08:16:25;94359.91;;;12.26;87.01
40946;BME280;55635;50.264;11.918;2024-03-23T08:19:07;94364.31;;;12.74;86.10
40946;BME280;55635;50.264;11.918;2024-03-23T08:21:49;94352.59;;;12.63;84.88
40946;BME280;55635;50.264;11.918;2024-03-23T08:24:32;94352.28;;;13.06;82.16
40946;BME280;55635;50.264;11.918;2024-03-23T08:27:13;94381.16;;;13.21;79.94
40946;BME280;55635;50.264;11.918;2024-03-23T08:29:54;94384.16;;;13.13;79.02
40946;BME280;55635;50.264;11.918;2024-03-23T08:32:35;94408.81;;;12.78;80.19
40946;BME280;55635;50.264;11.918;2024-03-23T08:35:17;94418.59;;;12.54;79.83
40946;BME280;55635;50.264;11.918;2024-03-23T08:37:58;94419.16;;;11.97;81.73
40946;BME280;55635;50.264;11.918;2024-03-23T08:40:41;94432.22;;;12.17;81.75
40946;BME280;55635;50.264;11.918;2024-03-23T08:43:24;94439.22;;;12.11;81.91
40946;BME280;55635;50.264;11.918;2024-03-23T08:46:13;94440.22;;;11.98;81.48
40946;BME280;55635;50.264;11.918;2024-03-23T08:48:56;94443.28;;;12.14;82.18
40946;BME280;55635;50.264;11.918;2024-03-23T08:51:36;94439.66;;;11.90;82.67
40946;BME280;55635;50.264;11.918;2024-03-23T08:54:18;94445.28;;;12.00;81.58
40946;BME280;55635;50.264;11.918;2024-03-23T08:57:01;94449.34;;;12.02;81.86
40946;BME280;55635;50.264;11.918;2024-03-23T08:59:42;94448.97;;;11.81;79.79
40946;BME280;55635;50.264;11.918;2024-03-23T09:02:23;94459.25;;;11.53;80.60
40946;BME280;55635;50.264;11.918;2024-03-23T09:05:04;94484.53;;;11.37;81.86
40946;BME280;55635;50.264;11.918;2024-03-23T09:07:46;94486.84;;;11.52;81.66
40946;BME280;55635;50.264;11.918;2024-03-23T09:10:27;94468.34;;;11.63;79.54
40946;BME280;55635;50.264;11.918;2024-03-23T09:13:08;94486.69;;;11.89;79.59
40946;BME280;55635;50.264;11.918;2024-03-23T09:15:51;94505.28;;;11.65;78.37
40946;BME280;55635;50.264;11.918;2024-03-23T09:18:34;94514.47;;;11.87;79.23
40946;BME280;55635;50.264;11.918;2024-03-23T09:21:16;94537.22;;;11.83;78.12
40946;BME280;55635;50.264;11.918;2024-03-23T09:23:57;94547.69;;;10.97;79.13
40946;BME280;55635;50.264;11.918;2024-03-23T09:26:38;94566.78;;;11.06;80.21
40946;BME280;55635;50.264;11.918;2024-03-23T09:29:19;94575.88;;;10.91;80.87
40946;BME280;55635;50.264;11.918;2024-03-23T09:32:00;94596.06;;;10.48;80.83
40946;BME280;55635;50.264;11.918;2024-03-23T09:34:41;94605.09;;;9.88;82.11
40946;BME280;55635;50.264;11.918;2024-03-23T09:37:22;94626.31;;;9.49;81.38
40946;BME280;55635;50.264;11.918;2024-03-23T09:40:04;94628.31;;;9.34;81.82
40946;BME280;55635;50.264;11.918;2024-03-23T09:42:50;94644.03;;;9.42;81.71
40946;BME280;55635;50.264;11.918;2024-03-23T09:45:32;94629.22;;;8.80;83.08
40946;BME280;55635;50.264;11.918;2024-03-23T09:48:14;94658.56;;;8.98;83.35
40946;BME280;55635;50.264;11.918;2024-03-23T09:50:56;94680.66;;;8.84;84.41
40946;BME280;55635;50.264;11.918;2024-03-23T09:53:37;94693.38;;;8.61;85.44
40946;BME280;55635;50.264;11.918;2024-03-23T09:56:19;94700.31;;;8.68;84.87
40946;BME280;55635;50.264;11.918;2024-03-23T09:59:01;94704.69;;;8.89;85.26
40946;BME280;55635;50.264;11.918;2024-03-23T10:01:43;94713.88;;;8.52;85.24
40946;BME280;55635;50.264;11.918;2024-03-23T10:04:43;94738.63;;;8.51;83.59
40946;BME280;55635;50.264;11.918;2024-03-23T10:07:26;94753.72;;;8.30;82.97
40946;BME280;55635;50.264;11.918;2024-03-23T10:10:11;94760.56;;;8.24;81.93
40946;BME280;55635;50.264;11.918;2024-03-23T10:12:52;94759.00;;;8.57;81.40
40946;BME280;55635;50.264;11.918;2024-03-23T10:15:36;94749.06;;;9.61;80.53
40946;BME280;55635;50.264;11.918;2024-03-23T10:18:19;94736.66;;;9.74;78.02
40946;BME280;55635;50.264;11.918;2024-03-23T10:21:08;94734.22;;;10.58;75.43
40946;BME280;55635;50.264;11.918;2024-03-23T10:23:49;94741.34;;;11.28;72.72
40946;BME280;55635;50.264;11.918;2024-03-23T10:26:31;94751.47;;;11.07;73.05
40946;BME280;55635;50.264;11.918;2024-03-23T10:29:12;94744.16;;;10.89;71.56
40946;BME280;55635;50.264;11.918;2024-03-23T10:31:53;94743.00;;;10.59;72.30
40946;BME280;55635;50.264;11.918;2024-03-23T10:34:36;94753.34;;;10.73;72.86
40946;BME280;55635;50.264;11.918;2024-03-23T10:37:17;94746.03;;;10.82;72.07
40946;BME280;55635;50.264;11.918;2024-03-23T10:39:58;94746.00;;;10.88;71.79
40946;BME280;55635;50.264;11.918;2024-03-23T10:42:40;94742.53;;;10.88;71.54
40946;BME280;55635;50.264;11.918;2024-03-23T10:45:21;94741.50;;;10.89;68.88
40946;BME280;55635;50.264;11.918;2024-03-23T10:48:02;94742.03;;;11.62;70.09
40946;BME280;55635;50.264;11.918;2024-03-23T10:50:43;94754.41;;;11.36;67.96
40946;BME280;55635;50.264;11.918;2024-03-23T10:53:27;94766.25;;;11.34;68.58
40946;BME280;55635;50.264;11.918;2024-03-23T10:56:08;94762.72;;;11.46;67.31
40946;BME280;55635;50.264;11.918;2024-03-23T10:58:51;94756.88;;;12.07;68.88
40946;BME280;55635;50.264;11.918;2024-03-23T11:01:33;94748.41;;;11.92;66.94
40946;BME280;55635;50.264;11.918;2024-03-23T11:04:38;94747.41;;;11.48;67.57
40946;BME280;55635;50.264;11.918;2024-03-23T11:07:32;94739.50;;;11.35;67.88
40946;BME280;55635;50.264;11.918;2024-03-23T11:10:30;94722.72;;;10.97;67.38
40946;BME280;55635;50.264;11.918;2024-03-23T11:13:22;94730.97;;;10.69;67.59
40946;BME280;55635;50.264;11.918;2024-03-23T11:16:28;94740.50;;;10.77;70.11
40946;BME280;55635;50.264;11.918;2024-03-23T11:19:34;94746.69;;;10.31;68.79
40946;BME280;55635;50.264;11.918;2024-03-23T11:25:31;94776.81;;;10.11;69.67
40946;BME280;55635;50.264;11.918;2024-03-23T11:28:12;94767.06;;;10.11;69.03
40946;BME280;55635;50.264;11.918;2024-03-23T11:30:53;94779.72;;;10.35;68.47
40946;BME280;55635;50.264;11.918;2024-03-23T11:33:34;94779.31;;;10.25;69.42
40946;BME280;55635;50.264;11.918;2024-03-23T11:36:19;94776.22;;;9.96;68.63
40946;BME280;55635;50.264;11.918;2024-03-23T11:39:15;94776.25;;;10.35;69.90
40946;BME280;55635;50.264;11.918;2024-03-23T11:41:57;94771.97;;;10.14;69.13
40946;BME280;55635;50.264;11.918;2024-03-23T11:44:38;94780.53;;;10.16;69.85
40946;BME280;55635;50.264;11.918;2024-03-23T11:47:19;94782.31;;;10.09;69.18
40946;BME280;55635;50.264;11.918;2024-03-23T11:50:00;94781.16;;;10.45;68.88
40946;BME280;55635;50.264;11.918;2024-03-23T11:52:40;94793.97;;;10.21;64.79
40946;BME280;55635;50.264;11.918;2024-03-23T11:55:21;94802.34;;;10.31;65.45
40946;BME280;55635;50.264;11.918;2024-03-23T11:58:02;94786.81;;;10.09;64.46
40946;BME280;55635;50.264;11.918;2024-03-23T12:00:58;94778.66;;;10.04;65.82
40946;BME280;55635;50.264;11.918;2024-03-23T12:03:44;94797.81;;;10.12;65.09
40946;BME280;55635;50.264;11.918;2024-03-23T12:06:24;94791.06;;;10.03;64.86
40946;BME280;55635;50.264;11.918;2024-03-23T12:09:06;94796.22;;;10.24;65.47
40946;BME280;55635;50.264;11.918;2024-03-23T12:11:47;94789.09;;;10.45;65.28
40946;BME280;55635;50.264;11.918;2024-03-23T12:14:28;94795.59;;;10.62;63.78
40946;BME280;55635;50.264;11.918;2024-03-23T12:17:14;94790.88;;;10.90;61.76
40946;BME280;55635;50.264;11.918;2024-03-23T12:19:55;94789.09;;;10.58;60.98
40946;BME280;55635;50.264;11.918;2024-03-23T12:22:36;94789.34;;;11.78;60.80
40946;BME280;55635;50.264;11.918;2024-03-23T12:25:17;94793.06;;;12.57;57.01
40946;BME280;55635;50.264;11.918;2024-03-23T12:28:00;94786.72;;;12.59;54.83
40946;BME280;55635;50.264;11.918;2024-03-23T12:30:42;94781.47;;;12.27;55.27
40946;BME280;55635;50.264;11.918;2024-03-23T12:33:22;94771.00;;;12.08;53.95
40946;BME280;55635;50.264;11.918;2024-03-23T12:36:04;94774.13;;;11.54;56.51
40946;BME280;55635;50.264;11.918;2024-03-23T12:38:45;94783.06;;;11.15;58.12
40946;BME280;55635;50.264;11.918;2024-03-23T12:41:26;94784.09;;;11.65;55.58
40946;BME280;55635;50.264;11.918;2024-03-23T12:44:07;94788.84;;;11.94;57.61
40946;BME280;55635;50.264;11.918;2024-03-23T12:46:49;94781.31;;;12.22;55.57
40946;BME280;55635;50.264;11.918;2024-03-23T12:49:30;94776.91;;;11.72;54.44
40946;BME280;55635;50.264;11.918;2024-03-23T12:52:12;94788.34;;;12.10;55.35
40946;BME280;55635;50.264;11.918;2024-03-23T12:54:55;94785.00;;;12.46;56.47
40946;BME280;55635;50.264;11.918;2024-03-23T12:57:36;94792.38;;;12.19;55.68
40946;BME280;55635;50.264;11.918;2024-03-23T13:00:20;94786.34;;;12.30;55.29
40946;BME280;55635;50.264;11.918;2024-03-23T13:03:01;94795.09;;;13.05;54.86
40946;BME280;55635;50.264;11.918;2024-03-23T13:05:42;94782.03;;;12.29;49.15
40946;BME280;55635;50.264;11.918;2024-03-23T13:08:23;94780.94;;;12.43;51.89
40946;BME280;55635;50.264;11.918;2024-03-23T13:11:03;94771.22;;;12.55;51.77
40946;BME280;55635;50.264;11.918;2024-03-23T13:13:44;94765.22;;;12.35;52.00
40946;BME280;55635;50.264;11.918;2024-03-23T13:16:25;94762.16;;;12.14;47.87
40946;BME280;55635;50.264;11.918;2024-03-23T13:19:06;94763.22;;;11.75;51.38
40946;BME280;55635;50.264;11.918;2024-03-23T13:21:47;94761.88;;;12.46;50.54
40946;BME280;55635;50.264;11.918;2024-03-23T13:24:28;94755.84;;;12.08;48.82
40946;BME280;55635;50.264;11.918;2024-03-23T13:27:09;94751.78;;;11.68;50.66
40946;BME280;55635;50.264;11.918;2024-03-23T13:29:51;94749.97;;;11.99;51.19
40946;BME280;55635;50.264;11.918;2024-03-23T13:32:32;94744.41;;;13.18;50.02
40946;BME280;55635;50.264;11.918;2024-03-23T13:35:13;94733.00;;;13.47;48.80
40946;BME280;55635;50.264;11.918;2024-03-23T13:37:54;94719.38;;;12.83;47.31
40946;BME280;55635;50.264;11.918;2024-03-23T13:40:35;94728.25;;;12.34;50.22
40946;BME280;55635;50.264;11.918;2024-03-23T13:43:18;94730.59;;;12.67;48.68
40946;BME280;55635;50.264;11.918;2024-03-23T13:45:59;94722.81;;;12.90;49.28
40946;BME280;55635;50.264;11.918;2024-03-23T13:48:40;94729.56;;;13.11;48.84
40946;BME280;55635;50.264;11.918;2024-03-23T13:51:26;94729.94;;;12.71;49.62
40946;BME280;55635;50.264;11.918;2024-03-23T13:54:10;94730.00;;;12.22;50.48
40946;BME280;55635;50.264;11.918;2024-03-23T13:56:53;94741.06;;;12.86;51.28
40946;BME280;55635;50.264;11.918;2024-03-23T13:59:35;94733.47;;;12.22;51.69
40946;BME280;55635;50.264;11.918;2024-03-23T14:02:16;94734.38;;;11.78;53.02
40946;BME280;55635;50.264;11.918;2024-03-23T14:04:57;94733.47;;;11.53;54.59
40946;BME280;55635;50.264;11.918;2024-03-23T14:07:38;94742.47;;;11.08;55.24
40946;BME280;55635;50.264;11.918;2024-03-23T14:10:19;94735.53;;;11.51;54.10
40946;BME280;55635;50.264;11.918;2024-03-23T14:13:00;94729.97;;;11.21;53.75
40946;BME280;55635;50.264;11.918;2024-03-23T14:15:40;94743.53;;;11.00;53.70
40946;BME280;55635;50.264;11.918;2024-03-23T14:18:21;94724.47;;;11.98;51.77
40946;BME280;55635;50.264;11.918;2024-03-23T14:21:03;94722.25;;;12.81;49.94
40946;BME280;55635;50.264;11.918;2024-03-23T14:23:44;94719.03;;;13.34;47.19
40946;BME280;55635;50.264;11.918;2024-03-23T14:26:25;94719.13;;;13.09;47.48
40946;BME280;55635;50.264;11.918;2024-03-23T14:29:06;94709.88;;;13.59;47.18
40946;BME280;55635;50.264;11.918;2024-03-23T14:31:48;94712.31;;;12.95;45.21
40946;BME280;55635;50.264;11.918;2024-03-23T14:34:30;94711.84;;;12.62;46.93
40946;BME280;55635;50.264;11.918;2024-03-23T14:37:11;94703.72;;;12.75;47.62
40946;BME280;55635;50.264;11.918;2024-03-23T14:39:52;94712.88;;;12.97;45.05
40946;BME280;55635;50.264;11.918;2024-03-23T14:42:32;94709.56;;;12.83;45.07
40946;BME280;55635;50.264;11.918;2024-03-23T14:45:13;94694.69;;;12.76;47.75
40946;BME280;55635;50.264;11.918;2024-03-23T14:47:56;94694.75;;;13.72;46.85
40946;BME280;55635;50.264;11.918;2024-03-23T14:50:38;94690.03;;;13.44;47.08
40946;BME280;55635;50.264;11.918;2024-03-23T14:53:19;94692.78;;;13.01;46.18
40946;BME280;55635;50.264;11.918;2024-03-23T14:56:01;94688.19;;;12.11;48.57
40946;BME280;55635;50.264;11.918;2024-03-23T14:58:42;94690.72;;;11.68;47.35
40946;BME280;55635;50.264;11.918;2024-03-23T15:01:23;94686.31;;;11.55;47.81
40946;BME280;55635;50.264;11.918;2024-03-23T15:04:04;94698.88;;;11.35;48.99